Terminal Aerodrome Forecast
Issued by NWS Wakefield, VA

Current Version | Previous Version | Text Only | Print | Product List | Glossary On
Versions: 1 2 3 4 5 6 7 8 9 10 11 12 13 14 15
000
FTUS41 KAKQ 011700
TAFECG
TAF
KECG 011730Z 0118/0218 16004KT P6SM BKN100
     FM020600 18012KT P6SM BKN025
     FM020800 20012G22KT 5SM -RA BR BKN025
     FM021500 25014KT 5SM -RA OVC015=

USA.gov is the U.S. government's official web portal to all federal, state and local government web resources and services.